Ben Strafuss — WDH6685 — position and weather

sailwx.info

Track history (hours):
 
Tides and Currents Weather Stations Pressure Air Temp Water Temp Dewpoint Dewpoint Depression Visibility Wind Speed Wind Dir Waves Ship Positions

Ben Strafuss

Owner: Amis, LLC, Harahan, LA. More information available from US FCC via Universal Licensing System and Coast Guard Vessel Documentation Center.

Last reported at 2017-Nov-24 05:27 UTC. Time now 2017-Nov-24 05:48 UTC.
Position N 29°45' W 095°04'.

Length 22 m; draft 3 m.

Type: Towing. MMSI: 367640610.

Date/timePositionNaut miles runAvg speedWind from/ knotsBaromVisibWave heightAir tempDewpointWater temp
2017-Nov-24 05:27N 29°45' W 095°04'4 7.4
2017-Nov-24 04:56N 29°42' W 095°01'3 7.8
2017-Nov-24 04:30N 29°40' W 094°58'4 7.6
2017-Nov-24 04:00N 29°36' W 094°57'5 9.3
2017-Nov-24 03:30N 29°33' W 094°54'  
2017-Nov-16 14:41N 29°33' W 094°55'2 8.9
2017-Nov-16 14:30N 29°35' W 094°56'4 8.6
2017-Nov-16 14:00N 29°38' W 094°58'7 0.4
2017-Nov-15 20:04N 29°44' W 095°03'1 7.3
2017-Nov-15 19:55N 29°44' W 095°02'3 6.2
2017-Nov-15 19:30N 29°42' W 095°00'4 7.0
2017-Nov-15 18:59N 29°39' W 094°58'3 6.4
2017-Nov-15 18:30N 29°36' W 094°57'4 7.6
2017-Nov-15 18:00N 29°33' W 094°54'  
Track history (hours):
 
Tides and Currents Weather Stations Pressure Air Temp Water Temp Dewpoint Dewpoint Depression Visibility Wind Speed Wind Dir Waves Ship Positions

Ben Strafuss

Owner: Amis, LLC, Harahan, LA. More information available from US FCC via Universal Licensing System and Coast Guard Vessel Documentation Center.

Last reported at 2017-Nov-24 05:27 UTC. Time now 2017-Nov-24 05:48 UTC.
Position N 29°45' W 095°04'.

Length 22 m; draft 3 m.

Type: Towing. MMSI: 367640610.

Date/timePositionNaut miles runAvg speedWind from/ knotsBaromVisibWave heightAir tempDewpointWater temp
2017-Nov-24 05:27N 29°45' W 095°04'4 7.4
2017-Nov-24 04:56N 29°42' W 095°01'3 7.8
2017-Nov-24 04:30N 29°40' W 094°58'4 7.6
2017-Nov-24 04:00N 29°36' W 094°57'5 9.3
2017-Nov-24 03:30N 29°33' W 094°54'  
2017-Nov-16 14:41N 29°33' W 094°55'2 8.9
2017-Nov-16 14:30N 29°35' W 094°56'4 8.6
2017-Nov-16 14:00N 29°38' W 094°58'7 0.4
2017-Nov-15 20:04N 29°44' W 095°03'1 7.3
2017-Nov-15 19:55N 29°44' W 095°02'3 6.2
2017-Nov-15 19:30N 29°42' W 095°00'4 7.0
2017-Nov-15 18:59N 29°39' W 094°58'3 6.4
2017-Nov-15 18:30N 29°36' W 094°57'4 7.6
2017-Nov-15 18:00N 29°33' W 094°54'  

Dump ship's entire track history